Time;durP1;ratioP1;P1;durP2;ratioP2;P2;SDS_P1;SDS_P2;PMS_P1;PMS_P2;Temp;Humidity;BMP_temperature;BMP_pressure;BME280_temperature;BME280_humidity;BME280_pressure;Samples;Min_cycle;Max_cycle;Signal;HPM_P1;HPM_P2
2021/09/24 00:01:36;;;;;;;5.57;3.93;;;13.60;99.90;;;;;;5028366;28;20515;-49
2021/09/24 00:04:02;;;;;;;5.32;4.78;;;13.10;99.90;;;;;;5029821;28;20178;-48
2021/09/24 00:06:27;;;;;;;4.67;4.27;;;13.50;99.90;;;;;;5028723;28;20244;-49
2021/09/24 00:08:53;;;;;;;5.17;4.67;;;13.60;99.90;;;;;;5031544;28;20230;-49
2021/09/24 00:11:19;;;;;;;5.90;4.40;;;13.70;99.90;;;;;;5036035;28;20213;-49
2021/09/24 00:13:45;;;;;;;5.00;4.47;;;13.50;99.90;;;;;;5027022;28;20174;-48
2021/09/24 00:16:10;;;;;;;5.03;4.50;;;13.70;99.90;;;;;;5037182;28;20732;-48
2021/09/24 00:18:36;;;;;;;4.97;4.00;;;13.70;99.90;;;;;;5029220;28;20212;-49
2021/09/24 00:21:02;;;;;;;6.73;4.33;;;13.50;99.90;;;;;;5028150;28;20586;-49
2021/09/24 00:23:27;;;;;;;6.00;4.57;;;13.60;99.90;;;;;;5028061;28;20628;-49
2021/09/24 00:25:53;;;;;;;4.73;4.30;;;13.70;99.90;;;;;;5023478;28;20216;-49
2021/09/24 00:28:18;;;;;;;4.57;4.17;;;13.60;99.90;;;;;;5021824;28;20211;-49
2021/09/24 00:30:44;;;;;;;4.33;3.93;;;13.70;99.90;;;;;;5027384;28;20206;-49
2021/09/24 00:33:09;;;;;;;5.60;4.17;;;13.20;99.90;;;;;;5028815;28;20650;-49
2021/09/24 00:35:35;;;;;;;5.83;4.37;;;13.50;99.90;;;;;;5027233;28;20201;-49
2021/09/24 00:38:01;;;;;;;5.23;4.40;;;13.20;99.90;;;;;;5027888;28;20217;-49
2021/09/24 00:40:26;;;;;;;5.50;5.00;;;13.40;99.90;;;;;;5024894;28;20220;-49
2021/09/24 00:42:52;;;;;;;5.30;4.63;;;13.40;99.90;;;;;;5035458;28;20703;-48
2021/09/24 00:45:17;;;;;;;5.40;4.90;;;13.20;99.90;;;;;;5027762;28;20538;-49
2021/09/24 00:47:43;;;;;;;5.27;4.87;;;13.20;99.90;;;;;;5029847;28;20210;-49
2021/09/24 00:50:09;;;;;;;5.33;4.83;;;13.40;99.90;;;;;;5028869;28;20224;-54
2021/09/24 00:52:35;;;;;;;5.80;5.20;;;13.30;99.90;;;;;;5024758;28;20262;-49
2021/09/24 00:55:01;;;;;;;7.93;5.30;;;13.10;99.90;;;;;;5036068;28;20617;-49
2021/09/24 00:57:27;;;;;;;6.23;5.20;;;13.20;99.90;;;;;;5035916;28;20802;-49
2021/09/24 00:59:53;;;;;;;5.82;4.90;;;13.00;99.90;;;;;;5025793;28;20547;-48
2021/09/24 01:02:19;;;;;;;5.00;4.60;;;13.10;99.90;;;;;;5036574;28;20210;-48
2021/09/24 01:04:45;;;;;;;5.90;5.30;;;12.90;99.90;;;;;;5031654;28;20289;-48
2021/09/24 01:07:13;;;;;;;7.32;5.15;;;13.10;99.90;;;;;;5029318;28;20448;-49
2021/09/24 01:09:38;;;;;;;5.53;5.00;;;12.80;99.90;;;;;;5028987;28;20208;-49
2021/09/24 01:12:05;;;;;;;6.67;4.87;;;12.90;99.90;;;;;;5032349;28;20201;-48
2021/09/24 01:14:31;;;;;;;6.03;5.40;;;13.00;99.90;;;;;;5025797;28;20456;-48
2021/09/24 01:16:58;;;;;;;5.75;5.07;;;13.00;99.90;;;;;;5040192;28;20192;-48
2021/09/24 01:19:24;;;;;;;5.10;4.60;;;12.80;99.90;;;;;;5024678;28;20260;-49
2021/09/24 01:21:50;;;;;;;7.05;5.82;;;13.00;99.90;;;;;;5033210;28;20242;-49
2021/09/24 01:24:17;;;;;;;9.95;4.57;;;13.00;99.90;;;;;;5035058;28;20189;-49
2021/09/24 01:26:51;;;;;;;7.45;5.60;;;12.70;99.90;;;;;;5031848;28;20197;-49
2021/09/24 01:29:18;;;;;;;7.72;5.00;;;12.60;99.90;;;;;;5025189;28;20220;-50
2021/09/24 01:31:44;;;;;;;5.65;5.07;;;12.80;99.90;;;;;;5031089;28;20689;-49
2021/09/24 01:34:10;;;;;;;5.17;4.67;;;12.60;99.90;;;;;;5033114;28;20206;-49
2021/09/24 01:36:36;;;;;;;5.57;5.07;;;12.70;99.90;;;;;;5037772;28;20455;-49
2021/09/24 01:39:08;;;;;;;6.07;5.10;;;13.10;99.90;;;;;;5031733;28;20474;-49
2021/09/24 01:41:37;;;;;;;6.07;5.00;;;13.00;99.90;;;;;;5030235;28;20642;-49
2021/09/24 01:44:03;;;;;;;5.28;4.80;;;12.90;99.90;;;;;;5032052;28;20201;-48
2021/09/24 01:46:29;;;;;;;5.57;4.95;;;13.00;99.90;;;;;;5033104;28;20272;-48
2021/09/24 01:48:55;;;;;;;5.67;4.50;;;13.00;99.90;;;;;;5036374;28;20340;-48
2021/09/24 01:51:20;;;;;;;5.43;4.67;;;12.90;99.90;;;;;;5032297;28;20292;-49
2021/09/24 01:53:46;;;;;;;5.43;4.50;;;13.10;99.90;;;;;;5030753;28;20266;-49
2021/09/24 01:56:12;;;;;;;5.27;4.40;;;13.00;99.90;;;;;;5037685;28;20189;-49
2021/09/24 01:58:37;;;;;;;4.90;4.43;;;12.80;99.90;;;;;;5026612;28;20284;-48
2021/09/24 02:01:03;;;;;;;5.63;4.80;;;12.90;99.90;;;;;;5036939;28;20239;-49
2021/09/24 02:03:28;;;;;;;5.30;4.80;;;12.90;99.90;;;;;;5034876;28;20544;-49
2021/09/24 02:05:54;;;;;;;4.77;4.37;;;12.80;99.90;;;;;;5030646;28;20201;-49
2021/09/24 02:08:20;;;;;;;6.47;4.60;;;12.80;99.90;;;;;;5029963;28;20205;-48
2021/09/24 02:10:45;;;;;;;4.57;4.17;;;12.90;99.90;;;;;;5032735;28;20263;-48
2021/09/24 02:13:11;;;;;;;5.07;4.63;;;12.80;99.90;;;;;;5030596;28;20277;-49
2021/09/24 02:15:36;;;;;;;7.13;5.20;;;12.60;99.90;;;;;;5028860;28;20233;-49
2021/09/24 02:18:02;;;;;;;5.33;4.90;;;12.60;99.90;;;;;;5030753;28;20221;-48
2021/09/24 02:20:28;;;;;;;4.90;4.50;;;12.70;99.90;;;;;;5023942;28;20403;-48
2021/09/24 02:22:53;;;;;;;5.87;4.83;;;12.50;99.90;;;;;;5033275;28;20187;-49
2021/09/24 02:25:19;;;;;;;5.63;5.07;;;12.90;99.90;;;;;;5030920;28;20200;-49
2021/09/24 02:27:44;;;;;;;5.37;4.87;;;12.80;99.90;;;;;;5029718;28;20712;-49
2021/09/24 02:30:10;;;;;;;5.37;4.80;;;12.90;99.90;;;;;;5024493;28;20216;-49
2021/09/24 02:32:36;;;;;;;4.97;4.57;;;12.70;99.90;;;;;;5029833;28;20189;-48
2021/09/24 02:35:02;;;;;;;5.60;5.03;;;12.50;99.90;;;;;;5030844;28;20727;-49
2021/09/24 02:37:27;;;;;;;8.20;4.47;;;12.70;99.90;;;;;;5028597;28;20231;-49
2021/09/24 02:39:53;;;;;;;6.27;4.90;;;12.50;99.90;;;;;;5029992;28;20468;-49
2021/09/24 02:42:19;;;;;;;5.77;5.00;;;12.50;99.90;;;;;;5030662;28;20178;-49
2021/09/24 02:44:44;;;;;;;5.57;4.47;;;12.60;99.90;;;;;;5028291;28;20185;-49
2021/09/24 02:47:10;;;;;;;5.70;5.03;;;12.40;99.90;;;;;;5030873;28;20203;-49
2021/09/24 02:49:37;;;;;;;5.27;4.77;;;12.40;99.90;;;;;;5033450;28;20209;-48
2021/09/24 02:52:05;;;;;;;5.93;5.32;;;12.30;99.90;;;;;;5032842;28;20762;-49
2021/09/24 02:54:30;;;;;;;5.55;4.65;;;12.30;99.90;;;;;;5023074;28;20267;-48
2021/09/24 02:56:56;;;;;;;5.30;4.73;;;12.50;99.90;;;;;;5038704;28;20288;-49
2021/09/24 02:59:22;;;;;;;6.20;5.23;;;12.30;99.90;;;;;;5028357;28;20477;-49
2021/09/24 03:01:47;;;;;;;5.10;4.60;;;12.10;99.90;;;;;;5029802;28;20231;-48
2021/09/24 03:04:13;;;;;;;6.17;5.57;;;12.30;99.90;;;;;;5029614;28;20700;-49
2021/09/24 03:06:38;;;;;;;6.50;5.10;;;12.20;99.90;;;;;;5037019;28;20245;-49
2021/09/24 03:09:04;;;;;;;6.30;5.70;;;12.40;99.90;;;;;;5024714;28;20300;-49
2021/09/24 03:11:30;;;;;;;5.40;4.90;;;12.30;99.90;;;;;;5022135;28;20187;-49
2021/09/24 03:13:55;;;;;;;5.17;4.40;;;12.50;99.90;;;;;;5028454;28;20181;-49
2021/09/24 03:16:21;;;;;;;5.43;4.93;;;12.40;99.90;;;;;;5030226;28;20189;-49
2021/09/24 03:18:50;;;;;;;5.57;5.07;;;12.40;99.90;;;;;;5032139;28;20663;-49
2021/09/24 03:21:17;;;;;;;5.75;5.15;;;12.20;99.90;;;;;;5025216;28;20190;-49
2021/09/24 03:23:42;;;;;;;6.95;5.60;;;12.40;99.90;;;;;;5030336;28;20178;-49
2021/09/24 03:26:08;;;;;;;5.20;4.70;;;12.30;99.90;;;;;;5029753;28;20207;-48
2021/09/24 03:28:34;;;;;;;5.73;4.70;;;12.40;99.90;;;;;;5030785;28;20627;-49
2021/09/24 03:30:59;;;;;;;5.20;4.60;;;12.20;99.90;;;;;;5031317;28;20472;-48
2021/09/24 03:33:25;;;;;;;5.73;5.03;;;12.30;99.90;;;;;;5031196;28;20184;-48
2021/09/24 03:35:51;;;;;;;5.73;5.13;;;12.30;99.90;;;;;;5030133;28;20240;-49
2021/09/24 03:38:16;;;;;;;5.83;5.00;;;12.40;99.90;;;;;;5025307;28;20643;-49
2021/09/24 03:40:42;;;;;;;6.40;5.80;;;12.10;99.90;;;;;;5030713;28;20452;-50
2021/09/24 03:43:08;;;;;;;8.07;5.07;;;12.20;99.90;;;;;;5032924;28;20185;-49
2021/09/24 03:45:33;;;;;;;6.20;5.60;;;12.30;99.90;;;;;;5025165;28;20199;-49
2021/09/24 03:47:59;;;;;;;5.80;5.20;;;12.10;99.90;;;;;;5028111;28;20267;-50
2021/09/24 03:50:25;;;;;;;5.73;4.83;;;12.20;99.90;;;;;;5031207;28;20216;-49
2021/09/24 03:52:54;;;;;;;5.90;5.40;;;12.10;99.90;;;;;;5024536;28;20261;-49
2021/09/24 03:55:20;;;;;;;5.80;5.30;;;12.10;99.90;;;;;;5029281;28;20210;-49
2021/09/24 03:57:47;;;;;;;6.13;5.38;;;12.30;99.90;;;;;;5029912;28;20208;-50
2021/09/24 04:00:13;;;;;;;5.43;4.93;;;12.10;99.90;;;;;;5025379;28;20304;-49
2021/09/24 04:02:39;;;;;;;7.13;5.35;;;11.70;99.90;;;;;;5035183;28;20683;-49
2021/09/24 04:05:06;;;;;;;5.83;5.20;;;11.90;99.90;;;;;;5031794;28;20702;-49
2021/09/24 04:07:31;;;;;;;8.38;6.53;;;11.90;99.90;;;;;;5031186;28;20462;-49
2021/09/24 04:09:57;;;;;;;7.03;6.30;;;12.10;99.90;;;;;;5026578;28;20529;-49
2021/09/24 04:12:22;;;;;;;6.63;5.60;;;12.30;99.90;;;;;;5029337;28;20563;-49
2021/09/24 04:14:48;;;;;;;7.60;6.30;;;12.10;99.90;;;;;;5024372;28;20184;-50
2021/09/24 04:17:14;;;;;;;6.23;5.63;;;11.70;99.90;;;;;;5031225;28;20541;-49
2021/09/24 04:19:40;;;;;;;7.60;5.70;;;11.90;99.90;;;;;;5028745;28;20647;-49
2021/09/24 04:22:05;;;;;;;6.00;5.40;;;11.80;99.90;;;;;;5025577;28;20223;-49
2021/09/24 04:24:31;;;;;;;7.80;6.33;;;11.80;99.90;;;;;;5039533;28;20529;-50
2021/09/24 04:26:57;;;;;;;5.77;5.27;;;12.00;99.90;;;;;;5028131;28;20188;-49
2021/09/24 04:29:22;;;;;;;6.10;5.40;;;12.10;99.90;;;;;;5027153;28;20204;-49
2021/09/24 04:31:48;;;;;;;5.23;4.73;;;12.10;99.90;;;;;;5029387;28;20201;-49
2021/09/24 04:34:13;;;;;;;7.60;6.30;;;12.00;99.90;;;;;;5024370;28;20200;-49
2021/09/24 04:36:39;;;;;;;6.60;6.00;;;12.20;99.90;;;;;;5027476;28;20262;-49
2021/09/24 04:39:05;;;;;;;6.53;5.83;;;11.90;99.90;;;;;;5033592;28;20202;-48
2021/09/24 04:41:30;;;;;;;6.97;5.57;;;12.00;99.90;;;;;;5038459;28;20185;-48
2021/09/24 04:43:56;;;;;;;6.67;5.50;;;12.20;99.90;;;;;;5028319;28;20194;-48
2021/09/24 04:46:21;;;;;;;5.77;5.17;;;12.30;99.90;;;;;;5029395;28;20172;-49
2021/09/24 04:48:47;;;;;;;6.83;5.73;;;12.10;99.90;;;;;;5033053;28;20225;-49
2021/09/24 04:51:13;;;;;;;6.87;6.00;;;12.10;99.90;;;;;;5027659;28;20294;-50
2021/09/24 04:53:38;;;;;;;8.30;6.10;;;12.20;99.90;;;;;;5025326;28;20656;-48
2021/09/24 04:56:04;;;;;;;6.97;5.50;;;12.20;99.90;;;;;;5032948;28;20184;-49
2021/09/24 04:58:30;;;;;;;6.70;5.50;;;12.20;99.90;;;;;;5026995;28;20466;-49
2021/09/24 05:00:56;;;;;;;6.70;4.97;;;12.30;99.90;;;;;;5032290;28;20445;-48
2021/09/24 05:03:21;;;;;;;7.03;6.17;;;12.10;99.90;;;;;;5032705;28;20323;-49
2021/09/24 05:05:47;;;;;;;6.60;6.00;;;12.40;99.90;;;;;;5032063;28;20279;-49
2021/09/24 05:08:12;;;;;;;7.47;5.97;;;12.10;99.90;;;;;;5026645;28;20203;-49
2021/09/24 05:10:38;;;;;;;6.50;5.60;;;12.30;99.90;;;;;;5028319;28;20204;-49
2021/09/24 05:13:04;;;;;;;6.13;5.53;;;12.20;99.90;;;;;;5030731;28;21584;-50
2021/09/24 05:15:30;;;;;;;6.00;5.40;;;12.40;99.90;;;;;;5027328;28;20181;-50
2021/09/24 05:17:55;;;;;;;6.40;5.80;;;12.30;99.90;;;;;;5030419;28;20213;-49
2021/09/24 05:20:21;;;;;;;6.60;6.00;;;12.20;99.90;;;;;;5030278;28;20452;-49
2021/09/24 05:22:47;;;;;;;7.65;5.95;;;12.20;99.90;;;;;;5025439;28;20184;-49
2021/09/24 05:25:13;;;;;;;9.03;6.40;;;12.10;99.90;;;;;;5028991;28;20276;-50
2021/09/24 05:27:39;;;;;;;6.43;5.83;;;12.10;99.90;;;;;;5028548;28;20216;-50
2021/09/24 05:30:06;;;;;;;7.15;6.00;;;12.30;99.90;;;;;;5024619;28;20508;-49
2021/09/24 05:32:32;;;;;;;6.40;5.90;;;12.40;99.90;;;;;;5030220;28;20191;-49
2021/09/24 05:34:57;;;;;;;11.43;7.90;;;12.30;99.90;;;;;;5033313;28;20565;-49
2021/09/24 05:37:23;;;;;;;7.80;6.50;;;12.40;99.90;;;;;;5030366;28;20224;-48
2021/09/24 05:39:49;;;;;;;6.27;5.67;;;12.40;99.90;;;;;;5029988;28;20188;-50
2021/09/24 05:42:15;;;;;;;7.67;6.07;;;12.30;99.90;;;;;;5031968;28;20287;-49
2021/09/24 05:44:41;;;;;;;7.65;6.20;;;12.20;99.90;;;;;;5027730;28;20232;-50
2021/09/24 05:47:06;;;;;;;6.97;6.28;;;12.30;99.90;;;;;;5022348;28;20439;-49
2021/09/24 05:49:32;;;;;;;9.03;6.80;;;12.40;99.90;;;;;;5028837;28;20281;-49
2021/09/24 05:51:59;;;;;;;8.43;6.90;;;12.40;99.90;;;;;;5031856;28;20239;-49
2021/09/24 05:54:25;;;;;;;11.07;6.55;;;12.60;99.90;;;;;;5028590;28;20209;-49
2021/09/24 05:56:52;;;;;;;8.55;6.32;;;12.40;99.90;;;;;;5029928;28;20265;-50
2021/09/24 05:59:17;;;;;;;6.90;6.20;;;12.60;99.90;;;;;;5019955;28;20234;-50
2021/09/24 06:01:44;;;;;;;13.37;6.60;;;12.60;99.90;;;;;;5035776;28;20212;-50
2021/09/24 06:04:10;;;;;;;8.65;6.57;;;12.50;99.90;;;;;;5026503;28;20184;-50
2021/09/24 06:06:35;;;;;;;6.20;5.60;;;12.70;99.90;;;;;;5026971;28;20226;-49
2021/09/24 06:09:02;;;;;;;6.50;5.90;;;12.60;99.90;;;;;;5030706;28;20595;-49
2021/09/24 06:11:28;;;;;;;6.95;6.25;;;12.90;99.90;;;;;;5030786;28;20646;-49
2021/09/24 06:13:54;;;;;;;8.18;6.30;;;12.40;99.90;;;;;;5029992;28;20658;-49
2021/09/24 06:16:20;;;;;;;7.10;6.40;;;12.90;99.90;;;;;;5034697;28;20189;-50
2021/09/24 06:18:46;;;;;;;8.80;6.30;;;13.00;99.90;;;;;;5032826;28;20453;-49
2021/09/24 06:21:12;;;;;;;6.80;6.03;;;13.20;99.90;;;;;;5027537;28;20197;-50
2021/09/24 06:23:39;;;;;;;6.40;5.80;;;13.30;99.90;;;;;;5031369;28;20186;-49
2021/09/24 06:26:05;;;;;;;7.00;6.30;;;13.60;99.90;;;;;;5030161;28;20651;-50
2021/09/24 06:28:31;;;;;;;7.22;5.80;;;13.50;99.90;;;;;;5022608;28;20222;-50
2021/09/24 06:30:57;;;;;;;6.27;5.67;;;13.60;99.90;;;;;;5031671;28;20255;-50
2021/09/24 06:33:23;;;;;;;6.78;5.75;;;13.60;99.90;;;;;;5038794;28;20255;-49
2021/09/24 06:35:49;;;;;;;6.93;5.63;;;13.70;99.90;;;;;;5031952;28;20654;-50
2021/09/24 06:38:14;;;;;;;5.73;5.20;;;13.80;99.90;;;;;;5032054;28;20996;-50
2021/09/24 06:40:40;;;;;;;6.83;6.10;;;14.00;99.90;;;;;;5031644;28;20607;-50
2021/09/24 06:43:05;;;;;;;6.60;5.90;;;14.10;99.90;;;;;;5031087;28;20667;-50
2021/09/24 06:45:31;;;;;;;6.03;5.43;;;14.10;99.90;;;;;;5030448;28;20178;-50
2021/09/24 06:47:57;;;;;;;6.87;5.53;;;14.40;99.90;;;;;;5029864;28;20202;-49
2021/09/24 06:50:23;;;;;;;6.53;5.93;;;14.40;99.90;;;;;;5031275;28;20455;-50
2021/09/24 06:52:48;;;;;;;7.23;6.07;;;14.60;99.90;;;;;;5031184;28;20194;-51
2021/09/24 06:55:14;;;;;;;6.13;5.30;;;14.50;99.90;;;;;;5034578;28;20277;-51
2021/09/24 06:57:39;;;;;;;7.00;5.77;;;14.70;99.90;;;;;;5030888;28;20202;-50
2021/09/24 07:00:07;;;;;;;6.37;5.20;;;15.10;99.90;;;;;;5035967;28;20568;-50
2021/09/24 07:02:33;;;;;;;6.43;5.65;;;14.80;99.90;;;;;;5030659;28;20175;-50
2021/09/24 07:04:58;;;;;;;6.13;5.63;;;15.40;99.90;;;;;;5029791;28;20186;-50
2021/09/24 07:07:24;;;;;;;6.07;4.63;;;15.70;99.90;;;;;;5031795;28;20758;-50
2021/09/24 07:09:49;;;;;;;5.93;5.37;;;15.90;99.90;;;;;;5030139;28;20764;-50
2021/09/24 07:12:15;;;;;;;6.50;5.90;;;15.90;99.90;;;;;;5031140;28;20186;-51
2021/09/24 07:14:41;;;;;;;6.60;5.97;;;16.30;99.90;;;;;;5022638;28;20187;-50
2021/09/24 07:17:08;;;;;;;5.37;4.87;;;16.70;99.90;;;;;;5030003;28;20429;-50
2021/09/24 07:19:34;;;;;;;5.55;5.05;;;17.00;99.90;;;;;;5036611;28;20244;-51
2021/09/24 07:22:00;;;;;;;5.53;4.93;;;17.40;99.90;;;;;;5031964;28;20193;-51
2021/09/24 07:24:25;;;;;;;6.20;5.63;;;17.90;99.90;;;;;;5031575;28;20170;-52
2021/09/24 07:26:51;;;;;;;7.40;5.87;;;18.40;99.90;;;;;;5032478;28;20260;-52
2021/09/24 07:29:16;;;;;;;9.70;6.10;;;18.80;99.90;;;;;;5026140;28;20210;-51
2021/09/24 07:31:42;;;;;;;6.80;6.20;;;19.20;99.70;;;;;;5038658;28;20219;-51
2021/09/24 07:34:08;;;;;;;5.93;5.30;;;19.30;99.00;;;;;;5025404;28;20178;-51
2021/09/24 07:36:34;;;;;;;6.40;5.70;;;19.80;98.50;;;;;;5030783;28;20190;-51
2021/09/24 07:38:59;;;;;;;6.13;5.63;;;20.30;98.00;;;;;;5028633;28;20206;-53
2021/09/24 07:41:25;;;;;;;6.33;5.63;;;20.50;97.00;;;;;;5029160;28;20174;-53
2021/09/24 07:43:52;;;;;;;7.20;5.50;;;21.00;96.50;;;;;;5024984;28;20178;-53
2021/09/24 07:46:20;;;;;;;6.50;5.83;;;21.40;95.40;;;;;;5031522;28;20252;-53
2021/09/24 07:48:46;;;;;;;5.67;5.17;;;22.60;94.00;;;;;;5034124;28;20448;-50
2021/09/24 07:51:12;;;;;;;8.10;6.93;;;24.40;91.30;;;;;;5043647;28;20457;-50
2021/09/24 07:53:38;;;;;;;5.33;4.90;;;25.80;87.60;;;;;;5026159;28;20206;-50
2021/09/24 07:56:05;;;;;;;6.70;5.00;;;26.60;81.60;;;;;;5032213;28;20433;-51
2021/09/24 07:58:30;;;;;;;8.37;7.67;;;26.70;78.80;;;;;;5023589;28;20465;-51
2021/09/24 08:00:56;;;;;;;5.67;5.10;;;26.20;76.30;;;;;;5031631;28;20531;-50
2021/09/24 08:03:22;;;;;;;6.23;5.47;;;26.20;78.40;;;;;;5029192;28;20652;-51
2021/09/24 08:05:47;;;;;;;6.53;6.03;;;26.10;77.10;;;;;;5037370;28;20192;-50
2021/09/24 08:08:13;;;;;;;6.00;5.50;;;25.70;78.00;;;;;;5023157;28;20236;-51
2021/09/24 08:10:39;;;;;;;6.00;5.50;;;24.90;78.50;;;;;;5034464;28;20286;-50
2021/09/24 08:13:04;;;;;;;6.23;5.63;;;23.70;81.90;;;;;;5027971;28;20659;-51
2021/09/24 08:15:31;;;;;;;6.93;6.23;;;22.70;85.70;;;;;;5028347;28;20224;-51
2021/09/24 08:17:57;;;;;;;6.47;5.97;;;22.70;87.60;;;;;;5029599;28;20452;-50
2021/09/24 08:20:22;;;;;;;6.83;6.00;;;22.60;87.70;;;;;;5029382;28;20471;-50
2021/09/24 08:22:48;;;;;;;8.27;5.37;;;22.10;88.50;;;;;;5030220;28;20189;-49
2021/09/24 08:25:16;;;;;;;6.00;5.50;;;21.80;89.70;;;;;;5026262;28;20214;-50
2021/09/24 08:27:43;;;;;;;5.60;5.10;;;21.70;90.50;;;;;;5027456;28;20260;-51
2021/09/24 08:30:11;;;;;;;7.50;6.10;;;21.20;90.80;;;;;;5026905;28;20201;-51
2021/09/24 08:32:38;;;;;;;6.53;5.95;;;21.10;91.80;;;;;;5029651;28;20571;-50
2021/09/24 08:35:11;;;;;;;5.70;4.93;;;21.10;92.00;;;;;;5038062;28;20246;-50
2021/09/24 08:37:38;;;;;;;5.60;5.20;;;21.10;91.80;;;;;;5028019;28;20202;-50
2021/09/24 08:40:07;;;;;;;7.28;5.50;;;20.80;91.90;;;;;;5028772;28;20174;-50
2021/09/24 08:42:36;;;;;;;5.45;4.95;;;20.70;91.90;;;;;;5028692;28;20189;-51
2021/09/24 08:45:02;;;;;;;6.28;5.78;;;20.10;92.90;;;;;;5027086;28;20182;-51
2021/09/24 08:47:28;;;;;;;6.10;5.50;;;20.00;94.00;;;;;;5033748;28;20201;-51
2021/09/24 08:49:53;;;;;;;6.13;5.63;;;20.20;93.90;;;;;;5025760;28;20563;-51
2021/09/24 08:52:19;;;;;;;5.50;4.70;;;20.30;94.00;;;;;;5027351;28;20942;-52
2021/09/24 08:54:45;;;;;;;6.43;5.37;;;20.40;93.80;;;;;;5036066;28;20182;-51
2021/09/24 08:57:15;;;;;;;5.27;4.77;;;20.40;93.70;;;;;;5035489;28;20222;-52
2021/09/24 08:59:40;;;;;;;6.15;5.55;;;20.40;93.70;;;;;;5020226;28;20828;-50
2021/09/24 09:02:09;;;;;;;6.37;5.43;;;20.30;93.80;;;;;;5035028;28;20201;-51
2021/09/24 09:04:37;;;;;;;5.57;5.18;;;20.50;94.10;;;;;;5029571;28;20272;-51
2021/09/24 09:07:05;;;;;;;6.60;5.50;;;20.80;93.70;;;;;;5028055;28;20193;-51
2021/09/24 09:09:41;;;;;;;5.72;5.20;;;21.00;93.40;;;;;;5021366;28;20186;-51
2021/09/24 09:12:23;;;;;;;5.80;5.22;;;21.20;92.80;;;;;;5028255;28;20186;-50
2021/09/24 09:15:11;;;;;;;5.45;4.95;;;21.10;92.90;;;;;;5028863;28;20186;-50
2021/09/24 09:17:41;;;;;;;4.97;4.50;;;21.20;92.40;;;;;;5029493;28;20206;-49
2021/09/24 09:20:16;;;;;;;5.80;5.30;;;21.40;92.30;;;;;;5031205;28;20182;-51
2021/09/24 09:22:45;;;;;;;4.60;4.20;;;21.40;92.30;;;;;;5031641;28;20276;-52
2021/09/24 09:25:23;;;;;;;5.50;5.10;;;21.30;92.60;;;;;;5034001;28;20554;-52
2021/09/24 09:27:50;;;;;;;5.13;4.70;;;21.60;92.20;;;;;;5030610;28;20225;-49
2021/09/24 09:30:16;;;;;;;5.43;4.72;;;21.80;91.90;;;;;;5031793;28;20206;-53
2021/09/24 09:32:45;;;;;;;4.60;4.17;;;22.20;91.50;;;;;;5037097;28;20181;-51
2021/09/24 09:35:11;;;;;;;4.90;4.50;;;22.60;90.50;;;;;;5032139;28;20532;-51
2021/09/24 09:37:38;;;;;;;5.47;4.30;;;23.00;90.00;;;;;;5029525;28;20460;-51
2021/09/24 09:40:08;;;;;;;6.00;5.27;;;23.60;87.60;;;;;;5028633;28;20974;-50
2021/09/24 09:42:37;;;;;;;5.23;4.70;;;24.90;83.70;;;;;;5035168;28;20472;-51
2021/09/24 09:45:05;;;;;;;4.27;3.97;;;26.00;79.30;;;;;;5019716;28;20523;-50
2021/09/24 09:47:33;;;;;;;4.80;4.30;;;26.10;77.20;;;;;;5023741;28;20461;-51
2021/09/24 09:50:17;;;;;;;3.67;3.30;;;26.70;76.10;;;;;;5032728;28;20513;-51
2021/09/24 09:53:02;;;;;;;4.60;4.20;;;27.20;73.80;;;;;;5032069;28;20457;-51
2021/09/24 09:55:35;;;;;;;4.30;3.50;;;26.90;73.60;;;;;;5029420;28;20432;-51
2021/09/24 09:58:06;;;;;;;3.47;3.27;;;26.40;74.90;;;;;;5031742;28;20465;-51
2021/09/24 10:00:33;;;;;;;3.47;3.17;;;27.00;73.60;;;;;;5030484;28;20450;-49
2021/09/24 10:03:17;;;;;;;3.40;3.20;;;27.40;72.00;;;;;;5035419;28;20570;-51
2021/09/24 10:05:43;;;;;;;4.07;3.20;;;27.80;69.00;;;;;;5035651;28;20457;-51
2021/09/24 10:08:22;;;;;;;3.43;3.10;;;27.50;67.70;;;;;;5031887;28;20561;-51
2021/09/24 10:10:58;;;;;;;3.30;3.00;;;27.80;69.60;;;;;;5031287;28;20476;-51
2021/09/24 10:13:26;;;;;;;3.10;2.80;;;28.70;65.90;;;;;;5031911;28;20444;-50
2021/09/24 10:15:52;;;;;;;4.40;3.40;;;28.90;64.40;;;;;;5029307;28;20433;-52
2021/09/24 10:18:17;;;;;;;3.73;2.40;;;29.70;62.30;;;;;;5032624;28;20961;-52
2021/09/24 10:20:44;;;;;;;3.33;2.70;;;29.80;60.30;;;;;;5031159;28;20194;-52
2021/09/24 10:23:10;;;;;;;2.87;2.67;;;29.10;61.10;;;;;;5033507;28;20210;-51
2021/09/24 10:25:38;;;;;;;3.17;2.87;;;28.30;63.40;;;;;;5032505;28;21028;-52
2021/09/24 10:28:05;;;;;;;3.57;3.30;;;27.60;65.60;;;;;;5031592;28;20568;-51
2021/09/24 10:30:33;;;;;;;4.57;4.00;;;27.10;68.10;;;;;;5031681;28;20468;-50
2021/09/24 10:33:03;;;;;;;3.40;3.07;;;26.20;70.10;;;;;;5029139;28;20531;-51
2021/09/24 10:35:54;;;;;;;3.10;2.90;;;25.40;73.30;;;;;;5034913;28;20558;-50
2021/09/24 10:38:24;;;;;;;2.90;2.60;;;24.60;74.80;;;;;;5025193;28;20464;-50
2021/09/24 10:41:07;;;;;;;3.20;3.00;;;24.10;76.60;;;;;;5032220;28;20524;-51
2021/09/24 10:43:46;;;;;;;3.80;3.53;;;23.80;76.90;;;;;;5029319;28;20445;-51
2021/09/24 10:46:24;;;;;;;3.73;2.97;;;23.60;79.00;;;;;;5026553;28;20459;-50
2021/09/24 10:49:15;;;;;;;3.40;3.10;;;23.50;78.80;;;;;;5031616;28;20563;-50
2021/09/24 10:51:47;;;;;;;4.10;3.80;;;23.80;78.50;;;;;;5030800;28;20814;-51
2021/09/24 10:54:20;;;;;;;3.53;3.23;;;23.90;78.40;;;;;;5031957;28;20808;-52
2021/09/24 10:57:04;;;;;;;4.07;3.13;;;23.80;78.70;;;;;;5031645;28;20452;-51
2021/09/24 10:59:32;;;;;;;4.43;3.27;;;24.40;77.80;;;;;;5029008;28;20905;-51
2021/09/24 11:01:58;;;;;;;3.73;3.30;;;24.80;76.30;;;;;;5028519;28;20545;-51
2021/09/24 11:04:44;;;;;;;3.60;3.33;;;24.40;76.60;;;;;;5033506;28;20437;-50
2021/09/24 11:07:26;;;;;;;3.87;3.57;;;24.50;77.20;;;;;;5032650;28;20507;-51
2021/09/24 11:09:52;;;;;;;3.80;3.50;;;24.30;76.90;;;;;;5025602;28;20468;-50
2021/09/24 11:12:18;;;;;;;10.93;10.10;;;24.30;77.10;;;;;;5023628;28;20821;-51
2021/09/24 11:14:45;;;;;;;3.73;3.37;;;24.10;78.10;;;;;;5026727;28;20524;-50
2021/09/24 11:17:12;;;;;;;5.43;3.10;;;23.90;78.40;;;;;;5030146;28;20437;-51
2021/09/24 11:19:47;;;;;;;3.70;2.90;;;23.70;79.20;;;;;;5030679;28;20519;-51
2021/09/24 11:22:23;;;;;;;4.10;3.80;;;23.70;78.90;;;;;;5030370;28;20464;-51
2021/09/24 11:25:05;;;;;;;4.20;3.90;;;23.80;78.60;;;;;;5026514;28;20455;-51
2021/09/24 11:27:37;;;;;;;3.50;3.20;;;23.80;78.60;;;;;;5027947;28;20565;-50
2021/09/24 11:30:04;;;;;;;3.77;3.40;;;23.50;78.10;;;;;;5024349;28;20977;-50
2021/09/24 11:32:40;;;;;;;7.20;3.43;;;23.40;79.30;;;;;;5028758;28;20769;-51
2021/09/24 11:35:08;;;;;;;6.43;3.80;;;23.40;79.70;;;;;;5034359;28;20437;-51
2021/09/24 11:37:36;;;;;;;3.73;3.23;;;23.50;79.90;;;;;;5025827;28;20456;-50
2021/09/24 11:40:07;;;;;;;4.23;3.83;;;23.30;80.20;;;;;;5026112;28;20441;-51
2021/09/24 11:42:39;;;;;;;4.43;4.03;;;23.50;79.80;;;;;;5029727;28;20440;-51
2021/09/24 11:45:09;;;;;;;5.70;3.97;;;23.50;79.60;;;;;;5019087;28;20453;-50
2021/09/24 11:47:41;;;;;;;3.50;3.20;;;23.60;79.30;;;;;;5025881;28;20551;-51
2021/09/24 11:50:06;;;;;;;6.33;4.47;;;23.70;77.70;;;;;;5026227;28;20465;-51
2021/09/24 11:52:39;;;;;;;5.97;5.40;;;23.80;77.50;;;;;;5029371;28;20440;-51
2021/09/24 11:55:10;;;;;;;3.53;3.23;;;24.10;77.00;;;;;;5029721;28;20449;-51
2021/09/24 11:57:36;;;;;;;5.07;3.70;;;24.30;76.40;;;;;;5030253;28;20471;-50
2021/09/24 12:00:03;;;;;;;5.33;3.30;;;24.20;76.80;;;;;;5030583;28;20443;-51
2021/09/24 12:02:29;;;;;;;5.87;4.70;;;24.20;76.70;;;;;;5035271;28;20195;-49
2021/09/24 12:05:03;;;;;;;4.07;3.67;;;24.20;76.90;;;;;;5029908;28;20448;-50
2021/09/24 12:07:30;;;;;;;3.63;3.33;;;24.20;76.60;;;;;;5025190;28;20213;-51
2021/09/24 12:10:04;;;;;;;4.33;3.80;;;24.40;75.80;;;;;;5031705;28;21009;-51
2021/09/24 12:12:30;;;;;;;3.60;3.40;;;24.40;74.80;;;;;;5030370;28;20441;-49
2021/09/24 12:15:00;;;;;;;4.53;4.10;;;24.10;77.10;;;;;;5025111;28;20875;-50
2021/09/24 12:17:28;;;;;;;4.60;4.20;;;24.10;76.40;;;;;;5030584;28;20628;-50
2021/09/24 12:19:55;;;;;;;6.20;5.33;;;24.00;77.10;;;;;;5028545;28;20734;-50
2021/09/24 12:22:21;;;;;;;4.00;3.70;;;24.10;76.20;;;;;;5030046;28;20452;-50
2021/09/24 12:24:47;;;;;;;4.10;3.70;;;24.20;76.80;;;;;;5031924;28;20535;-50
2021/09/24 12:27:21;;;;;;;3.90;3.60;;;24.10;76.00;;;;;;5034128;28;20908;-50
2021/09/24 12:29:47;;;;;;;4.07;3.77;;;24.10;74.80;;;;;;5026182;28;20248;-50
2021/09/24 12:32:15;;;;;;;6.40;4.40;;;24.20;75.90;;;;;;5029891;28;20807;-50
2021/09/24 12:34:59;;;;;;;5.20;4.70;;;24.10;75.10;;;;;;5030484;28;20642;-49
2021/09/24 12:37:45;;;;;;;4.17;3.87;;;24.00;75.50;;;;;;5029050;28;20985;-50
2021/09/24 12:40:16;;;;;;;5.13;4.30;;;24.00;75.40;;;;;;5027679;28;20436;-50
2021/09/24 12:42:48;;;;;;;4.37;4.00;;;24.00;75.90;;;;;;5030921;28;20476;-51
2021/09/24 12:45:30;;;;;;;4.50;4.10;;;24.10;74.70;;;;;;5027275;28;20874;-51
2021/09/24 12:48:13;;;;;;;4.30;4.00;;;24.00;74.30;;;;;;5027367;28;20456;-51